Time;durP1;ratioP1;P1;durP2;ratioP2;P2;SDS_P1;SDS_P2;PMS_P1;PMS_P2;Temp;Humidity;BMP_temperature;BMP_pressure;BME280_temperature;BME280_humidity;BME280_pressure;Samples;Min_cycle;Max_cycle;Signal;HPM_P1;HPM_P2
2022/12/14 00:00:49;;;;;;;23.13;14.53;;;-0.70;99.90;;;;;;5040256;28;20033;-41
2022/12/14 00:03:15;;;;;;;21.27;13.90;;;-0.70;99.90;;;;;;5038928;28;20029;-39
2022/12/14 00:05:42;;;;;;;25.03;15.10;;;-0.70;99.90;;;;;;5040166;28;20025;-39
2022/12/14 00:08:08;;;;;;;22.27;13.77;;;-0.70;99.90;;;;;;5039768;28;20055;-39
2022/12/14 00:10:35;;;;;;;22.07;14.97;;;-0.70;99.90;;;;;;5039117;28;20484;-38
2022/12/14 00:13:02;;;;;;;25.00;15.13;;;-0.70;99.90;;;;;;5039716;28;20029;-38
2022/12/14 00:15:27;;;;;;;22.17;14.10;;;-0.70;99.90;;;;;;5039487;28;20033;-40
2022/12/14 00:17:53;;;;;;;22.23;14.67;;;-0.70;99.90;;;;;;5039476;28;20025;-40
2022/12/14 00:20:19;;;;;;;21.77;13.83;;;-0.70;99.90;;;;;;5039224;28;20556;-39
2022/12/14 00:22:45;;;;;;;23.67;13.83;;;-0.70;99.90;;;;;;5039794;28;20024;-41
2022/12/14 00:25:11;;;;;;;22.00;13.17;;;-0.70;99.90;;;;;;5039198;28;20032;-39
2022/12/14 00:27:42;;;;;;;23.27;14.17;;;-0.70;99.90;;;;;;5039227;28;20017;-40
2022/12/14 00:30:08;;;;;;;21.17;14.03;;;-0.70;99.90;;;;;;5039334;28;20017;-40
2022/12/14 00:32:34;;;;;;;22.03;13.83;;;-0.70;99.90;;;;;;5038652;28;20158;-41
2022/12/14 00:35:00;;;;;;;25.00;14.07;;;-0.70;99.90;;;;;;5039034;28;20369;-38
2022/12/14 00:37:25;;;;;;;22.53;13.63;;;-0.70;99.90;;;;;;5038894;28;20033;-39
2022/12/14 00:39:51;;;;;;;22.63;13.83;;;-0.70;99.90;;;;;;5037783;28;20029;-42
2022/12/14 00:42:16;;;;;;;22.33;14.43;;;-0.70;99.90;;;;;;5039140;28;20040;-41
2022/12/14 00:44:42;;;;;;;25.30;14.77;;;-0.70;99.90;;;;;;5038049;28;20094;-40
2022/12/14 00:47:07;;;;;;;22.00;12.90;;;-0.70;99.90;;;;;;5038816;28;20028;-40
2022/12/14 00:49:33;;;;;;;21.27;12.97;;;-0.70;99.90;;;;;;5039260;28;20036;-42
2022/12/14 00:51:58;;;;;;;21.83;13.40;;;-0.70;99.90;;;;;;5040172;28;20041;-41
2022/12/14 00:54:24;;;;;;;19.77;13.43;;;-0.70;99.90;;;;;;5043770;28;20033;-40
2022/12/14 00:56:50;;;;;;;19.53;13.40;;;-0.80;99.90;;;;;;5043302;28;20041;-41
2022/12/14 00:59:17;;;;;;;21.70;13.10;;;-0.80;99.90;;;;;;5043125;28;20029;-41
2022/12/14 01:01:42;;;;;;;20.07;13.40;;;-0.80;99.90;;;;;;5043112;28;20437;-40
2022/12/14 01:04:18;;;;;;;22.23;13.13;;;-0.80;99.90;;;;;;5043075;28;20128;-39
2022/12/14 01:06:45;;;;;;;22.75;14.73;;;-0.80;99.90;;;;;;5042441;28;20025;-41
2022/12/14 01:09:10;;;;;;;21.77;13.67;;;-0.80;99.90;;;;;;5022592;28;20460;-40
2022/12/14 01:11:36;;;;;;;21.10;12.97;;;-0.80;99.90;;;;;;5037263;28;20029;-42
2022/12/14 01:14:03;;;;;;;26.42;15.00;;;-0.90;99.90;;;;;;5042128;28;20025;-41
2022/12/14 01:16:28;;;;;;;20.98;13.57;;;-0.80;99.90;;;;;;5042703;28;20579;-40
2022/12/14 01:18:54;;;;;;;21.70;13.40;;;-0.90;99.90;;;;;;5042777;28;20113;-41
2022/12/14 01:21:22;;;;;;;23.73;14.87;;;-0.90;99.90;;;;;;5041018;28;20023;-40
2022/12/14 01:23:52;;;;;;;21.00;13.75;;;-0.90;99.90;;;;;;5034095;28;20091;-40
2022/12/14 01:26:18;;;;;;;22.90;13.80;;;-0.90;99.90;;;;;;5029381;28;20559;-41
2022/12/14 01:28:45;;;;;;;22.80;13.55;;;-0.90;99.90;;;;;;5041927;28;20040;-40
2022/12/14 01:31:14;;;;;;;18.27;12.77;;;-0.90;99.90;;;;;;5042385;28;20029;-42
2022/12/14 01:33:44;;;;;;;20.03;13.23;;;-0.90;99.90;;;;;;5032008;28;20424;-40
2022/12/14 01:36:13;;;;;;;22.57;14.00;;;-0.90;99.90;;;;;;5041560;28;20591;-41
2022/12/14 01:38:38;;;;;;;20.87;13.00;;;-0.90;99.90;;;;;;5041816;28;20021;-41
2022/12/14 01:41:06;;;;;;;22.17;13.10;;;-0.90;99.90;;;;;;5041774;28;20397;-41
2022/12/14 01:43:45;;;;;;;22.50;13.43;;;-0.90;99.90;;;;;;5042412;28;20098;-41
2022/12/14 01:46:10;;;;;;;19.67;12.82;;;-0.90;99.90;;;;;;5041971;28;20025;-40
2022/12/14 01:48:36;;;;;;;19.90;12.60;;;-0.90;99.90;;;;;;5041488;28;20534;-40
2022/12/14 01:51:02;;;;;;;20.63;12.38;;;-0.90;99.90;;;;;;5042430;28;20029;-40
2022/12/14 01:53:27;;;;;;;22.70;13.47;;;-0.90;99.90;;;;;;5041564;28;20028;-40
2022/12/14 01:55:54;;;;;;;23.37;13.40;;;-0.90;99.90;;;;;;5040498;28;20037;-38
2022/12/14 01:58:22;;;;;;;22.53;13.73;;;-0.90;99.90;;;;;;5042049;28;20025;-41
2022/12/14 02:00:52;;;;;;;22.50;11.90;;;-0.90;99.90;;;;;;5042258;28;20116;-41
2022/12/14 02:03:24;;;;;;;21.92;13.55;;;-0.90;99.90;;;;;;5041247;28;20017;-39
2022/12/14 02:06:20;;;;;;;19.97;12.70;;;-0.90;99.90;;;;;;5041583;28;20443;-38
2022/12/14 02:08:49;;;;;;;19.17;10.73;;;-0.90;99.90;;;;;;5033646;28;20117;-41
2022/12/14 02:11:22;;;;;;;17.88;10.95;;;-0.90;99.90;;;;;;5038538;28;20478;-41
2022/12/14 02:13:48;;;;;;;19.47;11.83;;;-0.90;99.90;;;;;;5039848;28;20122;-41
2022/12/14 02:16:14;;;;;;;19.03;11.57;;;-0.90;99.90;;;;;;5040598;28;20124;-39
2022/12/14 02:18:46;;;;;;;18.33;11.02;;;-0.90;99.90;;;;;;5040918;28;20186;-41
2022/12/14 02:21:17;;;;;;;17.10;11.10;;;-1.00;99.90;;;;;;5041371;28;20104;-41
2022/12/14 02:24:01;;;;;;;17.60;11.20;;;-1.00;99.90;;;;;;5041132;28;20107;-41
2022/12/14 02:27:04;;;;;;;18.00;11.17;;;-1.00;99.90;;;;;;5042458;28;20108;-41
2022/12/14 02:29:40;;;;;;;15.57;10.73;;;-1.00;99.90;;;;;;5041831;28;20033;-41
2022/12/14 02:32:29;;;;;;;17.60;10.33;;;-1.00;99.90;;;;;;5041173;28;20044;-38
2022/12/14 02:35:23;;;;;;;17.63;10.67;;;-1.00;99.90;;;;;;5041542;28;20106;-38
2022/12/14 02:38:27;;;;;;;17.93;11.03;;;-1.10;99.90;;;;;;5040601;28;20045;-40
2022/12/14 02:41:14;;;;;;;17.17;10.47;;;-1.10;99.90;;;;;;5041488;28;20033;-41
2022/12/14 02:44:04;;;;;;;16.47;10.40;;;-1.10;99.90;;;;;;5040553;28;20091;-40
2022/12/14 02:46:49;;;;;;;16.80;10.73;;;-1.10;99.90;;;;;;5040865;28;20032;-40
2022/12/14 02:49:39;;;;;;;17.97;10.47;;;-1.10;99.90;;;;;;5040815;28;20327;-40
2022/12/14 02:52:23;;;;;;;17.00;10.97;;;-1.10;99.90;;;;;;5040649;28;20083;-38
2022/12/14 02:55:17;;;;;;;17.80;11.00;;;-1.20;99.90;;;;;;5040967;28;20031;-40
2022/12/14 02:57:52;;;;;;;18.13;10.53;;;-1.20;99.90;;;;;;5040526;28;20032;-41
2022/12/14 03:00:18;;;;;;;17.80;10.47;;;-1.20;99.90;;;;;;5039355;28;20058;-40
2022/12/14 03:02:46;;;;;;;16.33;10.87;;;-1.20;99.90;;;;;;5040748;28;20028;-41
2022/12/14 03:05:11;;;;;;;16.93;10.77;;;-1.20;99.90;;;;;;5040052;28;20040;-37
2022/12/14 03:07:48;;;;;;;19.60;10.80;;;-1.20;99.90;;;;;;5039666;28;20032;-40
2022/12/14 03:10:22;;;;;;;18.37;10.83;;;-1.20;99.90;;;;;;5040575;28;20147;-40
2022/12/14 03:12:56;;;;;;;16.17;10.13;;;-1.20;99.90;;;;;;5040282;28;20036;-41
2022/12/14 03:15:24;;;;;;;16.43;9.67;;;-1.20;99.90;;;;;;5040694;28;20024;-41
2022/12/14 03:17:54;;;;;;;20.97;11.33;;;-1.20;99.90;;;;;;5040209;28;20563;-41
2022/12/14 03:20:24;;;;;;;17.23;10.67;;;-1.20;99.90;;;;;;5039030;28;20094;-40
2022/12/14 03:22:58;;;;;;;16.77;10.03;;;-1.20;99.90;;;;;;5040266;28;20032;-41
2022/12/14 03:25:31;;;;;;;15.80;10.00;;;-1.30;99.90;;;;;;5040324;28;20028;-40
2022/12/14 03:28:10;;;;;;;19.63;10.40;;;-1.30;99.90;;;;;;5039663;28;20952;-40
2022/12/14 03:30:40;;;;;;;16.37;9.83;;;-1.30;99.90;;;;;;5039353;28;20025;-40
2022/12/14 03:33:12;;;;;;;14.53;9.23;;;-1.20;99.90;;;;;;5039352;28;20564;-40
2022/12/14 03:35:44;;;;;;;15.85;9.63;;;-1.30;99.90;;;;;;5039330;28;20032;-41
2022/12/14 03:38:27;;;;;;;14.73;9.23;;;-1.30;99.90;;;;;;5040110;28;20463;-40
2022/12/14 03:41:17;;;;;;;15.98;9.27;;;-1.30;99.90;;;;;;5039338;28;20048;-40
2022/12/14 03:44:01;;;;;;;14.87;9.20;;;-1.30;99.90;;;;;;5040275;28;20029;-40
2022/12/14 03:46:45;;;;;;;15.33;9.17;;;-1.30;99.90;;;;;;5040508;28;20072;-39
2022/12/14 03:49:23;;;;;;;13.20;7.30;;;-1.30;99.90;;;;;;5039076;28;20514;-40
2022/12/14 03:52:05;;;;;;;12.90;8.10;;;-1.30;99.90;;;;;;5040186;28;20032;-39
2022/12/14 03:54:47;;;;;;;14.77;9.30;;;-1.40;99.90;;;;;;5039843;28;20021;-40
2022/12/14 03:57:33;;;;;;;14.80;9.33;;;-1.30;99.90;;;;;;5039745;28;20052;-40
2022/12/14 04:00:03;;;;;;;15.40;8.23;;;-1.40;99.90;;;;;;5020200;28;20029;-40
2022/12/14 04:02:47;;;;;;;14.37;8.73;;;-1.40;99.90;;;;;;5035277;28;20040;-41
2022/12/14 04:05:29;;;;;;;14.10;9.07;;;-1.30;99.90;;;;;;5020126;28;20031;-37
2022/12/14 04:08:03;;;;;;;16.73;8.35;;;-1.40;99.90;;;;;;5037562;28;20033;-41
2022/12/14 04:19:08;;;;;;;12.43;7.73;;;-1.40;99.90;;;;;;5037750;28;20087;-40
2022/12/14 04:21:58;;;;;;;14.53;8.83;;;-1.40;99.90;;;;;;5039361;28;20056;-39
2022/12/14 04:27:35;;;;;;;14.10;8.53;;;-1.40;99.90;;;;;;5041780;28;20490;-39
2022/12/14 04:30:01;;;;;;;12.63;8.03;;;-1.40;99.90;;;;;;5042920;28;20025;-41
2022/12/14 04:32:36;;;;;;;13.97;8.43;;;-1.40;99.90;;;;;;5042843;28;20663;-40
2022/12/14 04:35:27;;;;;;;15.07;8.40;;;-1.40;99.90;;;;;;5043023;28;20044;-41
2022/12/14 04:38:05;;;;;;;14.70;8.57;;;-1.50;99.90;;;;;;5042988;28;20124;-41
2022/12/14 04:40:36;;;;;;;12.37;7.93;;;-1.50;99.90;;;;;;5043679;28;20033;-39
2022/12/14 04:43:07;;;;;;;15.03;9.17;;;-1.50;99.90;;;;;;5043247;28;20048;-42
2022/12/14 04:45:54;;;;;;;13.93;7.97;;;-1.50;99.90;;;;;;5042576;28;20037;-41
2022/12/14 04:48:41;;;;;;;12.47;7.90;;;-1.50;99.90;;;;;;5043013;28;20597;-40
2022/12/14 04:51:16;;;;;;;13.47;8.73;;;-1.50;99.90;;;;;;5042468;28;20094;-40
2022/12/14 04:53:45;;;;;;;17.97;9.73;;;-1.50;99.90;;;;;;5042759;28;20480;-39
2022/12/14 04:56:53;;;;;;;14.40;8.27;;;-1.50;99.90;;;;;;5042387;28;20068;-37
2022/12/14 04:59:20;;;;;;;13.03;8.17;;;-1.50;99.90;;;;;;5039335;28;20040;-40
2022/12/14 05:02:01;;;;;;;13.50;8.20;;;-1.50;99.90;;;;;;5043218;28;20036;-41
2022/12/14 05:04:53;;;;;;;17.17;9.43;;;-1.50;99.90;;;;;;5043347;28;20055;-41
2022/12/14 05:07:27;;;;;;;14.13;8.67;;;-1.50;99.90;;;;;;5023187;28;20061;-40
2022/12/14 05:10:03;;;;;;;12.97;8.50;;;-1.50;99.90;;;;;;5040359;28;20041;-41
2022/12/14 05:12:54;;;;;;;13.53;8.00;;;-1.50;99.90;;;;;;5042515;28;20136;-42
2022/12/14 05:15:30;;;;;;;11.50;7.47;;;-1.50;99.90;;;;;;5041983;28;20028;-40
2022/12/14 05:18:03;;;;;;;11.73;8.13;;;-1.50;99.90;;;;;;5042834;28;20064;-40
2022/12/14 05:20:29;;;;;;;12.67;7.93;;;-1.50;99.90;;;;;;5041770;28;20029;-41
2022/12/14 05:22:55;;;;;;;12.97;7.97;;;-1.50;99.90;;;;;;5042293;28;20025;-41
2022/12/14 05:25:20;;;;;;;12.43;7.53;;;-1.50;99.90;;;;;;5041928;28;20028;-39
2022/12/14 05:27:46;;;;;;;13.00;7.80;;;-1.50;99.90;;;;;;5042095;28;20033;-41
2022/12/14 05:30:12;;;;;;;13.10;7.37;;;-1.50;99.90;;;;;;5042392;28;20025;-38
2022/12/14 05:32:38;;;;;;;14.17;7.80;;;-1.50;99.90;;;;;;5042186;28;20053;-40
2022/12/14 05:35:05;;;;;;;11.77;7.50;;;-1.50;99.90;;;;;;5042554;28;20096;-40
2022/12/14 05:37:30;;;;;;;13.20;7.90;;;-1.50;99.90;;;;;;5042146;28;20033;-41
2022/12/14 05:39:56;;;;;;;11.97;7.03;;;-1.50;99.90;;;;;;5042076;28;20024;-41
2022/12/14 05:42:21;;;;;;;11.30;7.30;;;-1.50;99.90;;;;;;5042135;28;20565;-41
2022/12/14 05:44:47;;;;;;;12.03;7.50;;;-1.50;99.90;;;;;;5041472;28;20020;-42
2022/12/14 05:47:13;;;;;;;11.70;7.47;;;-1.60;99.90;;;;;;5042030;28;20696;-40
2022/12/14 05:49:39;;;;;;;13.00;7.27;;;-1.60;99.90;;;;;;5042314;28;20476;-41
2022/12/14 05:52:05;;;;;;;12.07;7.13;;;-1.60;99.90;;;;;;5041903;28;20021;-42
2022/12/14 05:54:31;;;;;;;14.17;7.70;;;-1.60;99.90;;;;;;5041804;28;20130;-40
2022/12/14 05:56:56;;;;;;;10.80;7.13;;;-1.60;99.90;;;;;;5042249;28;20033;-39
2022/12/14 05:59:22;;;;;;;14.83;7.70;;;-1.60;99.90;;;;;;5042233;28;20035;-41
2022/12/14 06:01:48;;;;;;;10.63;7.13;;;-1.60;99.90;;;;;;5040957;28;20839;-40
2022/12/14 06:04:15;;;;;;;12.43;7.57;;;-1.60;99.90;;;;;;5042059;28;20131;-40
2022/12/14 06:06:41;;;;;;;11.43;6.97;;;-1.70;99.90;;;;;;5040719;28;20044;-39
2022/12/14 06:09:08;;;;;;;10.90;6.17;;;-1.70;99.90;;;;;;5041107;28;20021;-40
2022/12/14 06:11:39;;;;;;;11.70;6.43;;;-1.70;99.90;;;;;;5040937;28;20060;-42
2022/12/14 06:14:05;;;;;;;11.60;6.43;;;-1.70;99.90;;;;;;5041244;28;20025;-39
2022/12/14 06:16:31;;;;;;;11.10;6.33;;;-1.70;99.90;;;;;;5041895;28;20047;-41
2022/12/14 06:18:58;;;;;;;11.13;6.80;;;-1.80;99.90;;;;;;5041477;28;20033;-39
2022/12/14 06:21:30;;;;;;;12.90;7.60;;;-1.80;99.90;;;;;;5041511;28;20056;-40
2022/12/14 06:23:56;;;;;;;10.23;6.70;;;-1.70;99.90;;;;;;5041007;28;20082;-41
2022/12/14 06:26:23;;;;;;;11.10;6.90;;;-1.80;99.90;;;;;;5041298;28;20049;-41
2022/12/14 06:28:49;;;;;;;10.67;6.70;;;-1.80;99.90;;;;;;5041406;28;20113;-41
2022/12/14 06:31:19;;;;;;;11.87;6.87;;;-1.80;99.90;;;;;;5039885;28;20052;-41
2022/12/14 06:33:45;;;;;;;9.73;5.87;;;-1.80;99.90;;;;;;5040825;28;20045;-41
2022/12/14 06:36:20;;;;;;;9.70;5.80;;;-1.80;99.90;;;;;;5041058;28;20758;-41
2022/12/14 06:38:45;;;;;;;8.27;5.23;;;-1.90;99.90;;;;;;5041347;28;20029;-41
2022/12/14 06:41:11;;;;;;;10.23;5.13;;;-1.90;99.90;;;;;;5040700;28;20025;-41
2022/12/14 06:43:37;;;;;;;7.37;4.80;;;-1.90;99.90;;;;;;5040263;28;20859;-40
2022/12/14 06:46:09;;;;;;;9.37;5.37;;;-1.90;99.90;;;;;;5041136;28;20033;-41
2022/12/14 06:48:35;;;;;;;8.93;5.30;;;-1.90;99.90;;;;;;5039477;28;20059;-39
2022/12/14 06:51:02;;;;;;;9.07;5.70;;;-2.00;99.90;;;;;;5040325;28;20112;-41
2022/12/14 06:53:29;;;;;;;11.33;6.13;;;-2.00;99.90;;;;;;5040680;28;20039;-41
2022/12/14 06:56:04;;;;;;;9.90;5.90;;;-2.00;99.90;;;;;;5040173;28;20032;-39
2022/12/14 06:58:30;;;;;;;8.73;5.57;;;-2.00;99.90;;;;;;5039480;28;20037;-40
2022/12/14 07:00:59;;;;;;;8.60;5.57;;;-2.00;99.90;;;;;;5040885;28;20039;-41
2022/12/14 07:03:25;;;;;;;9.70;6.00;;;-2.00;99.90;;;;;;5041317;28;20039;-39
2022/12/14 07:05:55;;;;;;;9.43;5.83;;;-2.00;99.90;;;;;;5040458;28;20028;-40
2022/12/14 07:08:21;;;;;;;9.50;5.83;;;-2.10;99.90;;;;;;5041152;28;20025;-40
2022/12/14 07:10:46;;;;;;;9.07;5.40;;;-2.10;99.90;;;;;;5040814;28;20029;-37
2022/12/14 07:13:12;;;;;;;8.40;5.20;;;-2.10;99.90;;;;;;5040544;28;20026;-40
2022/12/14 07:15:38;;;;;;;10.20;6.47;;;-2.10;99.90;;;;;;5040270;28;20036;-40
2022/12/14 07:18:04;;;;;;;9.33;5.60;;;-2.20;99.90;;;;;;5040237;28;20032;-42
2022/12/14 07:20:30;;;;;;;9.70;5.70;;;-2.20;99.90;;;;;;5040034;28;20024;-41
2022/12/14 07:22:55;;;;;;;9.70;6.10;;;-2.30;99.90;;;;;;5040391;28;20415;-40
2022/12/14 07:25:21;;;;;;;12.73;6.67;;;-2.30;99.90;;;;;;5040417;28;20024;-40
2022/12/14 07:27:47;;;;;;;11.83;6.60;;;-2.40;99.90;;;;;;5039721;28;20036;-41
2022/12/14 07:30:13;;;;;;;12.10;6.73;;;-2.50;99.90;;;;;;5040360;28;20029;-46
2022/12/14 07:32:39;;;;;;;10.70;6.40;;;-2.50;99.90;;;;;;5038990;28;20071;-41
2022/12/14 07:35:05;;;;;;;10.53;6.47;;;-2.60;99.90;;;;;;5039259;28;20460;-40
2022/12/14 07:37:30;;;;;;;11.20;6.50;;;-2.60;99.90;;;;;;5040326;28;20630;-40
2022/12/14 07:39:57;;;;;;;11.93;7.33;;;-2.60;99.90;;;;;;5038769;28;20052;-42
2022/12/14 07:42:23;;;;;;;14.17;7.03;;;-2.70;99.90;;;;;;5040313;28;20017;-42
2022/12/14 07:44:51;;;;;;;15.40;8.13;;;-2.70;99.90;;;;;;5040047;28;20021;-40
2022/12/14 07:47:17;;;;;;;13.83;7.67;;;-2.80;99.90;;;;;;5038915;28;20025;-41
2022/12/14 07:49:43;;;;;;;11.47;6.60;;;-2.70;99.90;;;;;;5040064;28;20024;-41
2022/12/14 07:52:08;;;;;;;12.60;7.13;;;-2.80;99.90;;;;;;5039962;28;20021;-41
2022/12/14 07:54:37;;;;;;;13.37;7.50;;;-2.80;99.90;;;;;;5037309;28;20024;-41
2022/12/14 07:57:02;;;;;;;14.27;7.53;;;-2.80;99.90;;;;;;5032207;28;20060;-41
2022/12/14 07:59:28;;;;;;;17.30;8.60;;;-2.80;99.90;;;;;;5034788;28;20057;-41
2022/12/14 08:01:56;;;;;;;12.87;7.67;;;-2.90;99.90;;;;;;5038820;28;20102;-41
2022/12/14 08:04:22;;;;;;;12.63;7.47;;;-2.90;99.90;;;;;;5038251;28;20024;-40
2022/12/14 08:06:48;;;;;;;12.83;7.97;;;-2.90;99.90;;;;;;5037995;28;20059;-42
2022/12/14 08:09:14;;;;;;;17.67;7.53;;;-2.90;99.90;;;;;;5037022;28;20013;-39
2022/12/14 08:11:40;;;;;;;15.43;7.70;;;-2.90;99.90;;;;;;5036887;28;20024;-40
2022/12/14 08:14:12;;;;;;;13.80;8.33;;;-2.90;99.90;;;;;;5037836;28;20017;-43
2022/12/14 08:16:41;;;;;;;15.13;8.10;;;-2.90;99.90;;;;;;5034767;28;20059;-38
2022/12/14 08:19:06;;;;;;;14.87;8.63;;;-3.00;99.90;;;;;;5038968;28;20032;-40
2022/12/14 08:21:32;;;;;;;14.30;8.70;;;-3.00;99.90;;;;;;5038539;28;20041;-40
2022/12/14 08:24:00;;;;;;;14.77;8.87;;;-3.00;99.90;;;;;;5038964;28;20623;-39
2022/12/14 08:26:26;;;;;;;13.90;8.83;;;-3.00;99.90;;;;;;5039595;28;20028;-40
2022/12/14 08:28:53;;;;;;;14.17;8.33;;;-3.10;99.90;;;;;;5038934;28;20025;-40
2022/12/14 08:31:22;;;;;;;16.40;8.80;;;-3.10;99.90;;;;;;5039289;28;20025;-40
2022/12/14 08:33:48;;;;;;;15.03;8.60;;;-3.10;99.90;;;;;;5039861;28;20041;-39
2022/12/14 08:36:19;;;;;;;15.33;9.10;;;-3.10;99.90;;;;;;5037973;28;20452;-42
2022/12/14 08:38:45;;;;;;;17.60;9.37;;;-3.20;99.90;;;;;;5039204;28;20042;-38
2022/12/14 08:41:13;;;;;;;14.23;8.77;;;-3.20;99.90;;;;;;5038526;28;20021;-41
2022/12/14 08:43:39;;;;;;;14.67;8.93;;;-3.20;99.90;;;;;;5038509;28;20136;-39
2022/12/14 08:46:07;;;;;;;17.70;9.03;;;-3.20;99.90;;;;;;5038492;28;20017;-40
2022/12/14 08:48:33;;;;;;;15.13;8.97;;;-3.20;99.90;;;;;;5039240;28;20068;-40
2022/12/14 08:51:08;;;;;;;15.53;9.50;;;-3.20;99.90;;;;;;5039270;28;20113;-40
2022/12/14 08:53:34;;;;;;;15.03;9.07;;;-3.20;99.90;;;;;;5038999;28;20053;-40
2022/12/14 08:56:09;;;;;;;16.00;9.47;;;-3.20;99.90;;;;;;5038861;28;20033;-40
2022/12/14 08:58:36;;;;;;;16.93;9.60;;;-3.20;99.90;;;;;;5027950;28;20023;-38
2022/12/14 09:01:07;;;;;;;16.40;9.43;;;-3.10;99.90;;;;;;5038938;28;20070;-39
2022/12/14 09:03:33;;;;;;;16.83;9.00;;;-3.20;99.90;;;;;;5038751;28;20040;-41
2022/12/14 09:06:07;;;;;;;18.47;9.40;;;-3.10;99.90;;;;;;5038273;28;20033;-40
2022/12/14 09:08:33;;;;;;;15.70;9.00;;;-3.10;99.90;;;;;;5038445;28;20037;-40
2022/12/14 09:11:03;;;;;;;16.20;9.43;;;-3.10;99.90;;;;;;5038295;28;20036;-41
2022/12/14 09:13:29;;;;;;;17.30;9.80;;;-3.00;99.90;;;;;;5041098;28;20021;-38
2022/12/14 09:16:05;;;;;;;17.20;10.07;;;-3.00;99.90;;;;;;5043232;28;20154;-41
2022/12/14 09:18:34;;;;;;;14.90;8.90;;;-3.00;99.90;;;;;;5041989;28;20029;-41
2022/12/14 09:21:00;;;;;;;15.03;8.87;;;-2.90;99.90;;;;;;5043378;28;20017;-40
2022/12/14 09:23:27;;;;;;;16.97;9.20;;;-2.90;99.90;;;;;;5042134;28;20028;-41
2022/12/14 09:26:17;;;;;;;15.23;8.70;;;-2.90;99.90;;;;;;5041948;28;20025;-39
2022/12/14 09:28:54;;;;;;;14.40;7.87;;;-2.80;99.90;;;;;;5042079;28;20052;-40
2022/12/14 09:31:23;;;;;;;15.70;7.97;;;-2.80;99.90;;;;;;5043085;28;20231;-35
2022/12/14 09:33:49;;;;;;;11.53;6.87;;;-2.70;99.90;;;;;;5041302;28;20048;-40
2022/12/14 09:36:17;;;;;;;11.87;7.33;;;-2.70;99.90;;;;;;5042538;28;20775;-37
2022/12/14 09:38:43;;;;;;;13.83;7.93;;;-2.60;99.90;;;;;;5042058;28;20097;-41
2022/12/14 09:41:25;;;;;;;14.07;7.40;;;-2.60;99.90;;;;;;5041564;28;20152;-41
2022/12/14 09:44:30;;;;;;;16.47;8.10;;;-2.50;99.90;;;;;;5042006;28;20749;-42
2022/12/14 09:47:17;;;;;;;9.83;6.33;;;-2.50;99.90;;;;;;5005324;28;20045;-41
2022/12/14 09:50:04;;;;;;;11.70;6.80;;;-2.50;99.90;;;;;;5041968;28;20033;-39
2022/12/14 09:52:45;;;;;;;12.03;7.57;;;-2.40;99.90;;;;;;5042002;28;20021;-40
2022/12/14 09:55:36;;;;;;;14.77;7.47;;;-2.40;99.90;;;;;;5041211;28;20867;-40
2022/12/14 09:58:11;;;;;;;13.00;8.20;;;-2.30;99.90;;;;;;5042284;28;20121;-40
2022/12/14 10:00:43;;;;;;;14.53;6.63;;;-2.20;99.90;;;;;;5030845;28;20044;-40
2022/12/14 10:03:39;;;;;;;12.20;6.70;;;-2.20;99.90;;;;;;5041561;28;20025;-40
2022/12/14 10:06:29;;;;;;;14.17;7.60;;;-2.10;99.90;;;;;;5033822;28;20037;-39
2022/12/14 10:09:13;;;;;;;10.63;6.57;;;-2.10;99.90;;;;;;5041130;28;20029;-40
2022/12/14 10:11:38;;;;;;;14.00;7.60;;;-2.00;99.90;;;;;;5041470;28;20054;-41
2022/12/14 10:14:23;;;;;;;12.73;7.47;;;-2.00;99.90;;;;;;5041382;28;20537;-42
2022/12/14 10:17:02;;;;;;;13.40;7.03;;;-2.00;99.90;;;;;;5040967;28;20112;-41
2022/12/14 10:19:35;;;;;;;14.20;6.80;;;-2.00;99.90;;;;;;5040689;28;20025;-41
2022/12/14 10:22:11;;;;;;;10.77;6.45;;;-1.90;99.90;;;;;;5037880;28;20036;-40
2022/12/14 10:24:42;;;;;;;12.23;7.10;;;-1.90;99.90;;;;;;5039539;28;20788;-41
2022/12/14 10:27:12;;;;;;;12.00;6.93;;;-1.80;99.90;;;;;;5040908;28;20763;-39
2022/12/14 10:29:46;;;;;;;9.93;6.43;;;-1.80;99.90;;;;;;5037832;28;20025;-40
2022/12/14 10:32:36;;;;;;;10.80;6.97;;;-1.80;99.90;;;;;;5040475;28;20045;-43
2022/12/14 10:35:13;;;;;;;12.70;6.83;;;-1.70;99.90;;;;;;5040876;28;20025;-41
2022/12/14 10:37:43;;;;;;;9.10;5.97;;;-1.70;99.90;;;;;;5039794;28;20392;-41
2022/12/14 10:40:09;;;;;;;9.93;6.43;;;-1.70;99.90;;;;;;5040513;28;20940;-42
2022/12/14 10:42:48;;;;;;;10.90;6.60;;;-1.70;99.90;;;;;;5040718;28;20040;-40
2022/12/14 10:45:23;;;;;;;10.93;6.20;;;-1.60;99.90;;;;;;5040892;28;20799;-40
2022/12/14 10:48:13;;;;;;;10.80;6.53;;;-1.60;99.90;;;;;;5041374;28;20781;-42
2022/12/14 10:51:03;;;;;;;9.63;6.00;;;-1.50;99.90;;;;;;5034557;28;20040;-39
2022/12/14 10:53:40;;;;;;;9.80;5.93;;;-1.40;99.90;;;;;;5040811;28;20428;-41
2022/12/14 10:56:13;;;;;;;10.53;6.37;;;-1.40;99.90;;;;;;5040452;28;20071;-42
2022/12/14 10:58:38;;;;;;;;;;;-1.40;99.90;;;;;;5039172;28;20021;-41
2022/12/14 11:01:07;;;;;;;9.20;5.87;;;-1.30;99.90;;;;;;5040126;28;20371;-41
2022/12/14 11:03:33;;;;;;;9.17;5.80;;;-1.30;99.90;;;;;;5039870;28;20036;-41
2022/12/14 11:06:12;;;;;;;9.57;5.60;;;-1.30;99.90;;;;;;5040444;28;20029;-41
2022/12/14 11:08:45;;;;;;;8.00;5.20;;;-1.30;99.90;;;;;;5040354;28;20042;-39
2022/12/14 11:11:20;;;;;;;7.65;4.80;;;-1.30;99.90;;;;;;5038319;28;20036;-41
2022/12/14 11:14:10;;;;;;;7.57;5.20;;;-1.30;99.90;;;;;;5040755;28;20119;-41
2022/12/14 11:16:38;;;;;;;10.57;5.93;;;-1.20;99.90;;;;;;5040702;28;20036;-41
2022/12/14 11:19:18;;;;;;;10.77;5.67;;;-1.20;99.90;;;;;;5037539;28;20024;-37
2022/12/14 11:21:44;;;;;;;8.77;5.60;;;-1.10;99.90;;;;;;5040050;28;20024;-41
2022/12/14 11:24:27;;;;;;;11.80;6.23;;;-1.10;99.90;;;;;;5041034;28;20048;-40
2022/12/14 11:26:57;;;;;;;10.07;5.90;;;-1.00;99.90;;;;;;5039673;28;20025;-39
2022/12/14 11:29:29;;;;;;;10.13;6.30;;;-1.00;99.90;;;;;;5040249;28;20049;-41
2022/12/14 11:31:55;;;;;;;;;;;-0.90;99.90;;;;;;5039020;28;21006;-39
2022/12/14 11:34:37;;;;;;;10.60;5.63;;;-0.90;99.90;;;;;;5040759;28;20032;-41
2022/12/14 11:37:22;;;;;;;11.63;6.23;;;-0.90;99.90;;;;;;5040146;28;20032;-40
2022/12/14 11:40:16;;;;;;;10.17;5.57;;;-0.80;99.90;;;;;;5037490;28;20025;-42
2022/12/14 11:42:49;;;;;;;10.23;6.10;;;-0.80;99.90;;;;;;5038559;28;20555;-41
2022/12/14 11:45:24;;;;;;;9.30;5.83;;;-0.70;99.90;;;;;;5038861;28;20036;-39
2022/12/14 11:48:10;;;;;;;8.60;5.93;;;-0.70;99.90;;;;;;5038302;28;20044;-39
2022/12/14 11:50:35;;;;;;;7.10;5.23;;;-0.70;99.90;;;;;;5018496;28;20138;-41
2022/12/14 11:53:05;;;;;;;9.97;6.33;;;-0.60;99.90;;;;;;5036432;28;20026;-40
2022/12/14 11:55:34;;;;;;;9.77;6.30;;;-0.60;99.90;;;;;;5040076;28;20060;-41
2022/12/14 11:57:59;;;;;;;8.07;5.60;;;-0.60;99.90;;;;;;5038546;28;20028;-39
2022/12/14 12:00:37;;;;;;;9.20;6.10;;;-0.50;99.90;;;;;;5038463;28;20044;-40
2022/12/14 12:03:28;;;;;;;7.87;5.70;;;-0.40;99.90;;;;;;5038220;28;20029;-40
2022/12/14 12:06:00;;;;;;;8.83;5.60;;;-0.40;99.90;;;;;;5037364;28;20025;-39
2022/12/14 12:08:28;;;;;;;8.10;5.40;;;-0.40;99.90;;;;;;5038113;28;20032;-40
2022/12/14 12:10:58;;;;;;;11.10;6.13;;;-0.40;99.90;;;;;;5019616;28;20029;-38
2022/12/14 12:13:36;;;;;;;10.33;6.60;;;-0.40;99.90;;;;;;5031238;28;20148;-38
2022/12/14 12:16:13;;;;;;;9.73;5.80;;;-0.30;99.90;;;;;;5037792;28;20131;-41
2022/12/14 12:18:53;;;;;;;10.63;6.57;;;-0.30;99.90;;;;;;5038620;28;20044;-40
2022/12/14 12:21:35;;;;;;;8.60;5.87;;;-0.30;99.90;;;;;;5037616;28;20473;-40
2022/12/14 12:24:16;;;;;;;10.07;5.73;;;-0.30;99.90;;;;;;5038003;28;20017;-40
2022/12/14 12:27:10;;;;;;;9.00;6.27;;;-0.30;99.90;;;;;;5038730;28;20502;-40
2022/12/14 12:29:42;;;;;;;9.70;6.10;;;-0.20;99.90;;;;;;5036837;28;20586;-39
2022/12/14 12:32:16;;;;;;;9.07;5.70;;;-0.20;99.90;;;;;;5039359;28;20057;-40
2022/12/14 12:35:13;;;;;;;10.10;6.45;;;-0.20;99.90;;;;;;5039134;28;20041;-40
2022/12/14 12:37:44;;;;;;;9.02;5.80;;;-0.20;99.90;;;;;;5039678;28;20037;-41
2022/12/14 12:40:20;;;;;;;10.27;5.47;;;-0.10;99.90;;;;;;5038730;28;20029;-41
2022/12/14 12:42:57;;;;;;;10.05;6.10;;;-0.10;99.90;;;;;;5038511;28;20032;-40
2022/12/14 12:45:46;;;;;;;10.15;5.90;;;0.00;99.90;;;;;;5038807;28;20021;-40
2022/12/14 12:48:20;;;;;;;9.57;5.93;;;0.00;99.90;;;;;;5041386;28;20477;-40
2022/12/14 12:50:50;;;;;;;9.00;5.60;;;0.00;99.90;;;;;;5041431;28;20507;-38
2022/12/14 12:53:27;;;;;;;8.95;5.70;;;0.00;99.90;;;;;;5043072;28;20106;-37
2022/12/14 12:55:57;;;;;;;9.07;5.40;;;0.10;99.90;;;;;;5042589;28;20391;-37
2022/12/14 12:58:28;;;;;;;9.40;5.65;;;0.10;99.90;;;;;;5043006;28;20025;-41
2022/12/14 13:00:59;;;;;;;7.43;5.07;;;0.20;99.90;;;;;;5042805;28;20120;-40
2022/12/14 13:03:37;;;;;;;9.63;6.10;;;0.20;99.90;;;;;;5041976;28;20049;-40
2022/12/14 13:06:22;;;;;;;10.10;6.07;;;0.30;99.90;;;;;;5041890;28;20094;-40
2022/12/14 13:08:54;;;;;;;10.30;5.65;;;0.30;99.90;;;;;;5043186;28;20033;-40
2022/12/14 13:11:26;;;;;;;8.98;5.97;;;0.40;99.90;;;;;;5040880;28;20136;-38
2022/12/14 13:13:55;;;;;;;8.68;5.47;;;0.50;99.90;;;;;;5042362;28;20025;-40
2022/12/14 13:16:31;;;;;;;10.95;6.72;;;0.50;99.90;;;;;;5041343;28;20040;-40